Time;durP1;ratioP1;P1;durP2;ratioP2;P2;SDS_P1;SDS_P2;PMS_P1;PMS_P2;Temp;Humidity;BMP_temperature;BMP_pressure;BME280_temperature;BME280_humidity;BME280_pressure;Samples;Min_cycle;Max_cycle;Signal;HPM_P1;HPM_P2
2022/10/07 00:00:21;;;;;;;3.65;3.15;;;;;;;7.15;84.17;96887.78;6297483;28;20040;-69
2022/10/07 00:03:25;;;;;;;6.38;3.88;;;;;;;7.12;84.16;96887.94;6297012;28;20090;-68
2022/10/07 00:06:28;;;;;;;5.85;3.38;;;;;;;7.13;83.67;96889.66;6296500;28;20055;-68
2022/10/07 00:09:32;;;;;;;5.95;4.05;;;;;;;7.15;83.27;96885.16;6296890;28;20048;-68
2022/10/07 00:12:35;;;;;;;6.55;4.00;;;;;;;7.20;82.95;96891.03;6297193;28;20037;-69
2022/10/07 00:15:40;;;;;;;4.75;3.30;;;;;;;7.05;83.19;96902.28;6296854;28;20418;-68
2022/10/07 00:18:43;;;;;;;11.00;4.40;;;;;;;7.07;83.32;96905.63;6296221;28;20056;-68
2022/10/07 00:21:49;;;;;;;8.30;4.00;;;;;;;7.00;83.10;96906.03;6296693;28;20048;-69
2022/10/07 00:24:53;;;;;;;5.40;3.75;;;;;;;6.97;82.80;96899.19;6296068;28;20060;-69
2022/10/07 00:27:57;;;;;;;10.30;4.40;;;;;;;6.86;82.96;96898.88;6295964;28;20450;-69
2022/10/07 00:31:04;;;;;;;10.40;6.13;;;;;;;6.99;81.96;96913.03;6296833;28;20494;-68
2022/10/07 00:34:10;;;;;;;9.02;4.22;;;;;;;7.01;81.81;96913.81;6296720;28;20044;-69
2022/10/07 00:37:19;;;;;;;11.48;5.63;;;;;;;6.92;81.38;96901.19;6296643;28;20036;-69
2022/10/07 00:40:26;;;;;;;12.05;6.82;;;;;;;6.78;81.84;96914.09;6296563;28;20041;-69
2022/10/07 00:43:31;;;;;;;8.00;5.40;;;;;;;6.66;82.28;96916.41;6296546;28;20037;-69
2022/10/07 00:46:36;;;;;;;8.98;5.68;;;;;;;6.65;82.25;96914.72;6296464;28;20040;-69
2022/10/07 00:49:52;;;;;;;7.75;4.40;;;;;;;6.74;82.18;96916.88;6296006;28;20494;-69
2022/10/07 00:53:01;;;;;;;12.75;6.30;;;;;;;6.66;82.37;96905.09;6293736;28;20464;-69
2022/10/07 00:56:07;;;;;;;9.15;6.32;;;;;;;6.55;82.98;96908.22;6296222;28;20040;-68
2022/10/07 00:59:11;;;;;;;13.27;7.43;;;;;;;6.60;82.94;96906.25;6296069;28;20070;-70
2022/10/07 01:02:17;;;;;;;13.73;6.38;;;;;;;6.67;82.96;96902.38;6295960;28;20048;-68
2022/10/07 01:05:19;;;;;;;14.95;6.85;;;;;;;6.66;83.33;96895.47;6295587;28;20045;-69
2022/10/07 01:08:22;;;;;;;8.88;5.82;;;;;;;6.68;83.42;96893.63;6294051;28;20052;-68
2022/10/07 01:11:38;;;;;;;9.63;6.20;;;;;;;6.74;83.13;96892.50;6295906;28;20135;-68
2022/10/07 01:15:15;;;;;;;7.43;5.15;;;;;;;6.79;83.25;96889.63;6295752;28;20135;-68
2022/10/07 01:18:30;;;;;;;8.70;5.65;;;;;;;6.89;83.34;96888.25;6292550;28;20041;-68
2022/10/07 01:22:10;;;;;;;13.55;5.75;;;;;;;6.99;82.78;96881.63;6295016;28;20056;-68
2022/10/07 01:25:20;;;;;;;7.43;4.68;;;;;;;7.00;83.22;96883.34;6294909;28;20110;-69
2022/10/07 01:28:33;;;;;;;11.00;6.65;;;;;;;7.09;82.87;96885.47;6295659;28;20049;-68
2022/10/07 01:32:09;;;;;;;14.13;7.55;;;;;;;7.23;82.09;96894.41;6295553;28;20135;-69
2022/10/07 01:35:20;;;;;;;18.08;7.97;;;;;;;7.23;81.22;96894.41;6267993;28;20056;-69
2022/10/07 01:38:28;;;;;;;17.40;8.35;;;;;;;7.15;81.44;96890.41;6295411;28;20052;-69
2022/10/07 01:41:33;;;;;;;13.27;8.10;;;;;;;7.19;81.64;96891.97;6295389;28;20422;-69
2022/10/07 01:44:35;;;;;;;16.17;7.97;;;;;;;7.19;81.30;96886.72;6294703;28;20546;-69
2022/10/07 01:47:36;;;;;;;17.05;6.97;;;;;;;7.29;81.21;96873.16;6294501;28;20045;-69
2022/10/07 01:50:40;;;;;;;9.70;5.90;;;;;;;7.31;80.88;96869.53;6295235;28;20568;-69
2022/10/07 01:54:03;;;;;;;8.88;5.88;;;;;;;7.27;80.90;96875.00;6295488;28;20037;-69
2022/10/07 01:57:31;;;;;;;11.93;6.63;;;;;;;7.31;81.33;96879.16;6294869;28;20063;-69
2022/10/07 02:00:41;;;;;;;8.48;6.40;;;;;;;7.38;80.98;96877.91;6295305;28;20052;-70
2022/10/07 02:03:48;;;;;;;10.10;6.15;;;;;;;7.35;80.90;96878.91;6294908;28;20087;-69
2022/10/07 02:07:13;;;;;;;10.50;6.40;;;;;;;7.39;80.57;96869.16;6295121;28;20045;-69
2022/10/07 02:10:28;;;;;;;14.95;6.68;;;;;;;7.45;80.30;96863.59;6294837;28;20045;-69
2022/10/07 02:13:38;;;;;;;;;;;;;;;7.41;80.12;96867.28;6295500;28;20040;-69
2022/10/07 02:16:41;;;;;;;10.63;6.30;;;;;;;7.44;80.43;96867.09;6294020;28;19974;-69
2022/10/07 02:19:47;;;;;;;10.60;6.40;;;;;;;7.42;80.62;96861.13;6294341;28;20056;-69
2022/10/07 02:22:54;;;;;;;13.82;7.90;;;;;;;7.51;79.81;96863.25;6294428;28;20045;-69
2022/10/07 02:26:02;;;;;;;9.00;6.07;;;;;;;7.41;80.46;96872.50;6294777;28;20418;-69
2022/10/07 02:29:09;;;;;;;9.18;7.05;;;;;;;7.40;80.24;96876.06;6294549;28;20366;-69
2022/10/07 02:32:19;;;;;;;9.27;5.03;;;;;;;7.31;80.79;96861.69;6294470;28;20086;-70
2022/10/07 02:35:31;;;;;;;9.02;6.07;;;;;;;7.32;81.19;96862.53;6294504;28;20044;-70
2022/10/07 02:38:37;;;;;;;8.07;5.57;;;;;;;7.36;81.62;96859.69;6297954;28;20049;-69
2022/10/07 02:41:49;;;;;;;11.48;6.82;;;;;;;7.38;81.12;96856.97;6299161;28;20051;-68
2022/10/07 02:44:56;;;;;;;13.80;6.68;;;;;;;7.53;81.50;96876.25;6299024;28;20125;-69
2022/10/07 02:48:10;;;;;;;14.07;7.50;;;;;;;7.72;80.69;96876.13;6298988;28;20091;-70
2022/10/07 02:51:19;;;;;;;10.20;7.32;;;;;;;7.67;80.50;96865.88;6298984;28;20499;-70
2022/10/07 02:54:27;;;;;;;9.77;6.20;;;;;;;7.64;80.41;96864.31;6298778;28;20048;-69
2022/10/07 02:57:37;;;;;;;9.30;5.82;;;;;;;7.68;79.98;96866.75;6298828;28;20040;-70
2022/10/07 03:00:49;;;;;;;9.18;6.07;;;;;;;7.67;79.37;96867.66;6298006;28;20048;-71
2022/10/07 03:03:56;;;;;;;7.70;4.82;;;;;;;7.58;79.90;96875.09;6298174;28;20079;-69
2022/10/07 03:07:00;;;;;;;8.13;4.68;;;;;;;7.56;80.23;96887.44;6298815;28;20032;-69
2022/10/07 03:10:03;;;;;;;7.57;4.95;;;;;;;7.62;80.48;96892.34;6298076;28;20048;-68
2022/10/07 03:13:05;;;;;;;7.82;5.13;;;;;;;7.68;80.32;96890.34;6297700;28;20139;-68
2022/10/07 03:16:07;;;;;;;8.80;5.30;;;;;;;7.68;80.29;96887.72;6297673;28;20041;-70
2022/10/07 03:19:09;;;;;;;10.77;6.82;;;;;;;7.78;79.42;96896.75;6297395;28;20040;-70
2022/10/07 03:22:14;;;;;;;13.48;7.28;;;;;;;7.81;79.33;96904.44;6297568;28;20049;-69
2022/10/07 03:25:16;;;;;;;14.60;7.18;;;;;;;7.79;78.91;96896.69;6297986;28;20059;-69
2022/10/07 03:28:23;;;;;;;12.15;7.55;;;;;;;7.78;79.19;96886.28;6295346;28;20052;-69
2022/10/07 03:31:27;;;;;;;12.85;7.03;;;;;;;7.85;79.27;96879.78;6295554;28;20090;-69
2022/10/07 03:34:30;;;;;;;16.08;9.02;;;;;;;7.92;79.23;96883.75;6298023;28;20037;-69
2022/10/07 03:37:35;;;;;;;20.52;9.95;;;;;;;7.97;79.38;96892.22;6297241;28;20153;-69
2022/10/07 03:40:42;;;;;;;14.57;7.93;;;;;;;8.02;79.40;96894.59;6297197;28;20127;-69
2022/10/07 03:43:44;;;;;;;11.93;8.18;;;;;;;7.96;79.26;96885.31;6296980;28;20209;-69
2022/10/07 03:46:51;;;;;;;12.82;7.78;;;;;;;7.90;79.53;96890.00;6297220;28;20052;-69
2022/10/07 03:49:56;;;;;;;13.68;6.55;;;;;;;7.85;79.73;96882.41;6296506;28;20139;-69
2022/10/07 03:53:00;;;;;;;8.52;5.93;;;;;;;7.97;79.43;96886.16;6297592;28;20048;-69
2022/10/07 03:56:05;;;;;;;7.57;5.82;;;;;;;7.98;79.58;96887.81;6297584;28;20044;-69
2022/10/07 03:59:06;;;;;;;10.23;5.40;;;;;;;8.03;79.59;96896.28;6296646;28;20470;-69
2022/10/07 04:02:12;;;;;;;11.10;6.45;;;;;;;8.13;79.65;96896.66;6296912;28;20083;-68
2022/10/07 04:05:18;;;;;;;11.45;5.43;;;;;;;8.13;79.57;96902.72;6296476;28;20048;-69
2022/10/07 04:08:20;;;;;;;11.68;6.22;;;;;;;8.20;79.21;96904.06;6296650;28;20048;-68
2022/10/07 04:11:24;;;;;;;8.98;5.47;;;;;;;8.18;78.80;96894.59;6297136;28;20041;-69
2022/10/07 04:14:28;;;;;;;10.20;5.95;;;;;;;8.20;79.32;96903.22;6296560;28;20052;-69
2022/10/07 04:17:30;;;;;;;10.52;5.68;;;;;;;8.27;79.09;96900.19;6297019;28;20036;-69
2022/10/07 04:20:36;;;;;;;8.77;5.32;;;;;;;8.36;78.84;96893.59;6295690;28;20042;-68
2022/10/07 04:23:40;;;;;;;10.18;5.43;;;;;;;8.42;78.60;96897.69;6296578;28;20045;-69
2022/10/07 04:26:44;;;;;;;9.15;5.90;;;;;;;8.57;78.41;96901.22;6295721;28;20451;-69
2022/10/07 04:29:49;;;;;;;7.20;5.22;;;;;;;8.69;78.01;96903.13;6296633;28;20040;-69
2022/10/07 04:32:51;;;;;;;7.05;4.93;;;;;;;8.92;77.74;96892.19;6296440;28;20055;-69
2022/10/07 04:35:52;;;;;;;9.20;6.63;;;;;;;9.08;76.81;96901.78;6294086;28;20057;-69
2022/10/07 04:38:54;;;;;;;9.25;6.10;;;;;;;9.40;76.43;96898.13;6296400;28;20040;-70
2022/10/07 04:41:58;;;;;;;10.82;6.32;;;;;;;9.76;75.19;96899.44;6296058;28;20045;-68
2022/10/07 04:45:03;;;;;;;10.02;5.28;;;;;;;9.83;74.46;96902.56;6295508;28;20048;-68
2022/10/07 04:48:07;;;;;;;8.00;4.80;;;;;;;9.75;74.21;96908.28;6295564;28;20130;-69
2022/10/07 04:51:11;;;;;;;8.00;4.97;;;;;;;9.71;74.28;96909.41;6296157;28;20044;-69
2022/10/07 04:54:13;;;;;;;8.90;5.43;;;;;;;9.76;73.95;96907.31;6295777;28;20102;-68
2022/10/07 04:57:15;;;;;;;7.60;5.18;;;;;;;10.06;73.29;96916.91;6295489;28;20049;-69
2022/10/07 05:00:21;;;;;;;10.55;5.53;;;;;;;10.20;72.49;96909.00;6295123;28;20041;-69
2022/10/07 05:03:24;;;;;;;6.63;4.28;;;;;;;10.21;72.30;96905.41;6295305;28;20461;-69
2022/10/07 05:06:33;;;;;;;7.82;4.22;;;;;;;10.26;71.90;96900.72;6295880;28;20032;-69
2022/10/07 05:09:38;;;;;;;6.90;4.70;;;;;;;10.34;71.38;96897.63;6295600;28;20044;-70
2022/10/07 05:12:40;;;;;;;8.95;4.55;;;;;;;10.27;71.39;96898.97;6295024;28;20539;-69
2022/10/07 05:15:53;;;;;;;5.78;3.83;;;;;;;10.31;70.96;96893.41;6295063;28;20048;-69
2022/10/07 05:19:02;;;;;;;6.75;3.70;;;;;;;10.39;70.83;96899.97;6295502;28;20040;-69
2022/10/07 05:22:06;;;;;;;7.05;4.32;;;;;;;10.35;70.87;96896.69;6293993;28;20598;-69
2022/10/07 05:25:07;;;;;;;6.43;4.22;;;;;;;10.31;70.57;96896.03;6294967;28;20041;-69
2022/10/07 05:28:13;;;;;;;9.23;6.05;;;;;;;10.31;69.97;96911.81;6294734;28;20098;-69
2022/10/07 05:31:17;;;;;;;10.73;3.95;;;;;;;10.33;69.71;96903.81;6295198;28;20567;-68
2022/10/07 05:34:21;;;;;;;6.30;4.47;;;;;;;10.55;66.59;96892.78;6295292;28;20048;-70
2022/10/07 05:37:22;;;;;;;6.35;3.60;;;;;;;10.69;66.86;96892.72;6294602;28;20046;-70
2022/10/07 05:40:24;;;;;;;6.95;3.70;;;;;;;11.06;65.73;96885.03;6294852;28;20049;-69
2022/10/07 05:43:27;;;;;;;5.22;3.67;;;;;;;11.38;65.17;96892.56;6294337;28;20057;-69
2022/10/07 05:46:31;;;;;;;7.00;3.97;;;;;;;11.77;64.32;96877.63;6294407;28;20047;-69
2022/10/07 05:49:36;;;;;;;6.00;3.80;;;;;;;12.06;62.82;96883.53;6294914;28;20045;-69
2022/10/07 05:52:41;;;;;;;5.03;3.42;;;;;;;12.21;61.66;96881.59;6295035;28;20044;-69
2022/10/07 05:55:50;;;;;;;10.65;3.30;;;;;;;12.28;61.04;96888.94;6295196;28;20045;-69
2022/10/07 05:58:56;;;;;;;5.57;3.42;;;;;;;12.62;59.46;96885.69;6294437;28;20040;-69
2022/10/07 06:02:00;;;;;;;8.65;3.85;;;;;;;13.46;58.19;96877.63;6294923;28;20045;-69
2022/10/07 06:05:04;;;;;;;3.67;3.05;;;;;;;15.48;52.60;96880.84;6294392;28;20049;-70
2022/10/07 06:08:08;;;;;;;4.70;2.85;;;;;;;18.72;47.05;96881.56;6295119;28;20041;-70
2022/10/07 06:14:34;;;;;;;2.65;2.17;;;;;;;28.30;29.80;96879.50;6299168;28;20091;-69
2022/10/07 06:17:41;;;;;;;2.47;2.17;;;;;;;31.41;24.15;96872.69;6299681;28;20041;-69
2022/10/07 06:20:58;;;;;;;1.80;1.40;;;;;;;34.26;21.27;96881.69;6299659;28;20055;-69
2022/10/07 06:24:02;;;;;;;2.53;1.35;;;;;;;35.86;19.35;96883.34;6299690;28;20048;-69
2022/10/07 06:27:09;;;;;;;2.80;1.30;;;;;;;36.42;18.03;96874.72;6299465;28;20037;-69
2022/10/07 06:30:11;;;;;;;2.78;1.02;;;;;;;35.78;16.83;96878.34;6299314;28;20078;-69
2022/10/07 06:33:13;;;;;;;2.00;1.00;;;;;;;36.60;16.31;96870.75;6298510;28;20444;-69
2022/10/07 06:36:15;;;;;;;4.10;0.80;;;;;;;37.72;15.33;96870.31;6299094;28;20033;-68
2022/10/07 06:39:17;;;;;;;2.13;1.00;;;;;;;33.71;16.71;96860.56;6299009;28;20121;-69
2022/10/07 06:42:21;;;;;;;0.90;0.70;;;;;;;28.51;21.87;96841.38;6298392;28;20399;-70
2022/10/07 06:45:28;;;;;;;1.20;1.10;;;;;;;24.50;25.88;96838.75;6299200;28;20494;-70
2022/10/07 06:48:34;;;;;;;1.38;1.20;;;;;;;21.98;29.63;96848.47;6299075;28;20493;-70
2022/10/07 06:51:37;;;;;;;1.48;1.38;;;;;;;20.38;31.06;96827.41;6298729;28;20405;-69
2022/10/07 06:54:39;;;;;;;2.92;1.38;;;;;;;19.15;32.86;96840.00;6298113;28;20434;-70
2022/10/07 06:57:44;;;;;;;3.17;1.88;;;;;;;18.65;34.20;96834.34;6298800;28;20040;-70
2022/10/07 07:00:52;;;;;;;1.90;1.48;;;;;;;20.69;31.10;96840.25;6297941;28;20051;-70
2022/10/07 07:03:56;;;;;;;2.17;1.23;;;;;;;21.30;29.48;96844.34;6298631;28;20485;-70
2022/10/07 07:06:59;;;;;;;1.77;1.17;;;;;;;20.53;30.15;96841.88;6298724;28;20048;-70
2022/10/07 07:10:02;;;;;;;1.55;1.13;;;;;;;19.72;31.17;96832.44;6297551;28;20082;-70
2022/10/07 07:13:09;;;;;;;1.63;1.10;;;;;;;18.69;32.87;96839.22;6297693;28;20571;-69
2022/10/07 07:16:16;;;;;;;1.80;1.23;;;;;;;17.64;34.47;96835.06;6297159;28;20563;-70
2022/10/07 07:19:20;;;;;;;1.30;1.08;;;;;;;17.45;35.18;96827.13;6297250;28;20047;-70
2022/10/07 07:22:29;;;;;;;2.22;1.05;;;;;;;18.22;33.93;96820.69;6298164;28;20425;-70
2022/10/07 07:25:37;;;;;;;2.15;1.00;;;;;;;19.21;32.42;96812.72;6297833;28;20102;-70
2022/10/07 07:28:39;;;;;;;1.58;0.70;;;;;;;23.67;26.95;96819.16;6297566;28;20044;-68
2022/10/07 07:31:43;;;;;;;2.03;1.10;;;;;;;29.65;20.57;96838.91;6298035;28;20048;-69
2022/10/07 07:34:47;;;;;;;0.70;0.60;;;;;;;33.69;16.01;96835.44;6298004;28;20127;-69
2022/10/07 07:37:55;;;;;;;1.45;0.68;;;;;;;31.40;16.77;96843.00;6297715;28;20044;-70
2022/10/07 07:41:03;;;;;;;1.58;0.75;;;;;;;28.75;19.61;96841.69;6297243;28;20135;-68
2022/10/07 07:44:10;;;;;;;1.13;0.68;;;;;;;27.14;21.29;96834.72;6297184;28;20057;-69
2022/10/07 07:47:15;;;;;;;1.67;0.52;;;;;;;30.10;18.72;96836.81;6297279;28;20032;-69
2022/10/07 07:50:21;;;;;;;1.10;0.75;;;;;;;30.92;17.63;96835.72;6297489;28;20528;-69
2022/10/07 07:53:22;;;;;;;;;;;;;;;28.72;19.85;96831.28;6296988;28;20056;-70
2022/10/07 07:56:24;;;;;;;4.13;1.27;;;;;;;24.98;22.91;96817.56;6296546;28;19924;-68
2022/10/07 07:59:31;;;;;;;2.40;1.30;;;;;;;22.24;25.71;96815.25;6296472;28;20502;-71
2022/10/07 08:02:33;;;;;;;1.58;1.08;;;;;;;20.40;27.57;96798.69;6296991;28;20040;-69
2022/10/07 08:05:37;;;;;;;2.95;1.40;;;;;;;19.38;29.40;96797.66;6297051;28;20040;-70
2022/10/07 08:08:44;;;;;;;4.38;2.00;;;;;;;18.58;30.23;96799.47;6297107;28;20501;-70
2022/10/07 08:11:52;;;;;;;5.97;3.42;;;;;;;17.79;31.07;96792.88;6297043;28;20044;-70
2022/10/07 08:14:56;;;;;;;9.93;4.88;;;;;;;17.87;30.95;96795.66;6296657;28;20041;-70
2022/10/07 08:17:58;;;;;;;8.07;4.50;;;;;;;19.39;28.96;96793.16;6296879;28;20080;-70
2022/10/07 08:21:04;;;;;;;4.07;2.63;;;;;;;23.44;24.40;96794.16;6297242;28;20049;-70
2022/10/07 08:24:10;;;;;;;1.70;1.02;;;;;;;23.43;23.87;96787.13;6296759;28;20056;-69
2022/10/07 08:27:14;;;;;;;1.70;0.82;;;;;;;23.46;23.48;96789.47;6296768;28;20048;-69
2022/10/07 08:30:16;;;;;;;1.05;0.90;;;;;;;22.32;24.41;96769.66;6296425;28;20097;-71
2022/10/07 08:33:21;;;;;;;1.55;1.02;;;;;;;21.46;25.95;96773.94;6296505;28;20044;-70
2022/10/07 08:36:24;;;;;;;5.05;3.95;;;;;;;25.37;22.29;96773.22;6294563;28;20098;-69
2022/10/07 08:39:29;;;;;;;4.32;2.20;;;;;;;29.75;18.05;96784.97;6296053;28;20048;-69
2022/10/07 08:42:41;;;;;;;1.13;0.80;;;;;;;32.75;15.14;96797.66;6296062;28;20037;-69
2022/10/07 08:45:46;;;;;;;0.75;0.50;;;;;;;33.57;14.06;96791.84;6295888;28;20048;-70
2022/10/07 08:49:02;;;;;;;0.50;0.40;;;;;;;35.01;13.05;96811.06;6295942;28;20037;-69
2022/10/07 08:52:38;;;;;;;0.40;0.30;;;;;;;36.70;12.58;96793.22;6295283;28;20056;-70
2022/10/07 08:55:54;;;;;;;0.40;0.30;;;;;;;36.77;11.30;96799.28;6295138;28;20083;-69
2022/10/07 08:59:23;;;;;;;0.60;0.40;;;;;;;36.23;11.97;96788.59;6295210;28;20194;-69
2022/10/07 09:02:35;;;;;;;1.27;0.35;;;;;;;37.05;11.18;96801.56;6295111;28;20044;-69
2022/10/07 09:05:48;;;;;;;1.58;1.02;;;;;;;37.22;11.19;96784.06;6295720;28;20044;-69
2022/10/07 09:08:58;;;;;;;1.30;0.50;;;;;;;36.58;11.15;96786.06;6295818;28;20040;-69
2022/10/07 09:12:07;;;;;;;0.40;0.40;;;;;;;35.16;11.56;96792.13;6295560;28;20449;-69
2022/10/07 09:15:37;;;;;;;0.50;0.32;;;;;;;33.23;12.82;96796.41;6295508;28;20174;-69
2022/10/07 09:18:52;;;;;;;0.52;0.22;;;;;;;33.87;12.43;96775.13;6295800;28;20037;-69
2022/10/07 09:22:10;;;;;;;1.05;0.30;;;;;;;34.53;12.07;96782.59;6295080;28;20056;-68
2022/10/07 09:25:12;;;;;;;0.40;0.30;;;;;;;35.09;11.35;96788.75;6294470;28;20083;-69
2022/10/07 09:28:20;;;;;;;0.20;0.20;;;;;;;32.38;12.94;96781.63;6294434;28;20148;-70
2022/10/07 09:31:26;;;;;;;0.75;0.52;;;;;;;30.03;15.01;96783.66;6294701;28;20044;-69
2022/10/07 09:34:33;;;;;;;0.30;0.30;;;;;;;31.32;13.93;96777.00;6295261;28;20040;-70
2022/10/07 09:37:52;;;;;;;1.17;0.52;;;;;;;33.35;12.60;96774.53;6295123;28;20497;-68
2022/10/07 09:41:31;;;;;;;0.55;0.40;;;;;;;30.86;13.27;96767.66;6295074;28;20040;-70
2022/10/07 09:44:35;;;;;;;0.55;0.30;;;;;;;29.93;14.00;96762.50;6293217;28;20124;-69
2022/10/07 09:47:42;;;;;;;0.43;0.30;;;;;;;31.53;13.48;96777.53;6293589;28;20055;-69
2022/10/07 09:50:49;;;;;;;0.43;0.43;;;;;;;31.89;13.22;96772.94;6294998;28;20040;-69
2022/10/07 09:54:04;;;;;;;0.70;0.52;;;;;;;30.65;13.66;96765.41;6294332;28;20509;-70
2022/10/07 09:57:33;;;;;;;0.98;0.50;;;;;;;29.43;14.75;96768.75;6293280;28;20040;-69
2022/10/07 10:00:44;;;;;;;0.77;0.50;;;;;;;28.35;16.11;96771.44;6287704;28;20143;-69
2022/10/07 10:03:56;;;;;;;0.47;0.43;;;;;;;27.20;17.20;96768.28;6294513;28;20056;-69
2022/10/07 10:07:20;;;;;;;1.52;0.70;;;;;;;24.80;19.97;96763.38;6294365;28;20045;-69
2022/10/07 10:10:30;;;;;;;2.03;0.77;;;;;;;23.23;22.12;96751.91;6288130;28;20472;-69
2022/10/07 10:13:39;;;;;;;1.88;0.75;;;;;;;23.82;21.91;96762.75;6294714;28;20048;-68
2022/10/07 10:16:48;;;;;;;0.77;0.60;;;;;;;24.09;21.30;96763.09;6294275;28;20044;-69
2022/10/07 10:20:15;;;;;;;0.95;0.70;;;;;;;25.47;20.29;96762.94;6294526;28;20040;-68
2022/10/07 10:23:40;;;;;;;0.68;0.40;;;;;;;26.57;19.35;96763.16;6294530;28;20052;-70
2022/10/07 10:26:54;;;;;;;1.33;0.75;;;;;;;27.39;18.33;96769.34;6294599;28;20143;-70
2022/10/07 10:30:04;;;;;;;2.20;1.05;;;;;;;29.47;16.37;96772.69;6293583;28;20053;-69
2022/10/07 10:33:40;;;;;;;1.00;0.70;;;;;;;30.91;15.47;96782.44;6293906;28;20083;-68
2022/10/07 10:36:51;;;;;;;0.77;0.65;;;;;;;30.11;15.85;96791.50;6294281;28;20055;-70
2022/10/07 10:40:06;;;;;;;0.70;0.57;;;;;;;28.69;17.65;96796.53;6294368;28;20044;-70
2022/10/07 10:43:27;;;;;;;0.93;0.82;;;;;;;27.34;18.89;96796.13;6294599;28;20403;-70
2022/10/07 10:46:59;;;;;;;1.33;0.63;;;;;;;26.09;20.39;96799.03;6294197;28;20048;-70
2022/10/07 10:50:22;;;;;;;0.98;0.90;;;;;;;23.97;22.47;96779.72;6294075;28;20036;-69
2022/10/07 10:53:50;;;;;;;1.95;1.02;;;;;;;22.58;23.79;96777.38;6294415;28;20498;-70
2022/10/07 10:57:11;;;;;;;1.27;0.80;;;;;;;20.10;27.23;96760.88;6265111;28;20532;-70
2022/10/07 11:00:21;;;;;;;1.25;0.88;;;;;;;18.39;30.15;96757.81;6297041;28;20106;-69
2022/10/07 11:03:50;;;;;;;0.90;0.82;;;;;;;18.04;31.03;96766.56;6297203;28;20052;-72
2022/10/07 11:06:59;;;;;;;2.55;0.85;;;;;;;18.40;30.03;96755.00;6297865;28;20056;-70
2022/10/07 11:10:12;;;;;;;1.55;1.00;;;;;;;18.02;30.55;96752.56;6298074;28;20070;-68
2022/10/07 11:13:34;;;;;;;1.17;0.90;;;;;;;19.81;28.65;96761.25;6298347;28;20540;-70
2022/10/07 11:16:38;;;;;;;2.60;1.85;;;;;;;22.23;23.81;96768.84;6297952;28;20040;-70
2022/10/07 11:19:52;;;;;;;3.30;1.63;;;;;;;23.77;21.89;96764.34;6298441;28;20131;-69
2022/10/07 11:23:04;;;;;;;2.45;0.85;;;;;;;24.36;21.17;96770.50;6298241;28;20099;-69
2022/10/07 11:26:18;;;;;;;2.90;1.58;;;;;;;24.28;21.11;96767.06;6297924;28;20049;-68
2022/10/07 11:29:19;;;;;;;1.67;1.33;;;;;;;23.91;21.56;96760.81;6298164;28;20502;-69
2022/10/07 11:32:40;;;;;;;2.00;0.82;;;;;;;23.62;22.03;96757.06;6297869;28;20040;-69
2022/10/07 11:35:52;;;;;;;1.20;0.82;;;;;;;23.18;22.45;96754.31;6297083;28;20048;-70
2022/10/07 11:38:56;;;;;;;1.05;0.73;;;;;;;22.47;23.20;96751.78;6296971;28;20497;-70
2022/10/07 11:42:06;;;;;;;0.80;0.80;;;;;;;21.83;24.35;96759.13;6297579;28;20417;-70
2022/10/07 11:45:32;;;;;;;1.00;0.80;;;;;;;21.83;24.31;96765.31;6297677;28;20045;-70
2022/10/07 11:48:45;;;;;;;1.00;0.60;;;;;;;21.55;24.81;96750.66;6295873;28;20041;-69
2022/10/07 11:51:58;;;;;;;1.52;0.90;;;;;;;21.98;24.25;96760.88;6297210;28;20161;-69
2022/10/07 11:55:10;;;;;;;0.70;0.70;;;;;;;20.50;26.20;96767.34;6297264;28;20044;-70
2022/10/07 11:58:31;;;;;;;1.05;0.95;;;;;;;18.40;29.08;96760.31;6296505;28;20051;-70
2022/10/07 12:01:35;;;;;;;1.05;0.90;;;;;;;16.67;32.61;96763.38;6296962;28;20047;-69
2022/10/07 12:04:37;;;;;;;1.73;0.90;;;;;;;15.82;33.97;96762.13;6296231;28;20051;-69
2022/10/07 12:07:42;;;;;;;1.35;1.00;;;;;;;15.48;35.18;96764.19;6297020;28;20044;-69
2022/10/07 12:10:54;;;;;;;1.52;1.00;;;;;;;15.34;35.28;96759.22;6296628;28;20044;-70
2022/10/07 12:14:28;;;;;;;1.17;0.90;;;;;;;15.13;35.94;96770.69;6297012;28;20044;-69
2022/10/07 12:17:32;;;;;;;1.73;1.10;;;;;;;15.03;36.48;96768.00;6295138;28;20045;-69
2022/10/07 12:20:51;;;;;;;1.33;0.93;;;;;;;15.36;36.34;96762.59;6296645;28;20045;-69
2022/10/07 12:24:13;;;;;;;1.50;1.33;;;;;;;15.00;36.50;96770.06;6295996;28;20048;-68
2022/10/07 12:27:20;;;;;;;1.85;1.30;;;;;;;14.30;37.60;96776.72;6296617;28;20045;-70
2022/10/07 12:30:47;;;;;;;1.48;1.17;;;;;;;13.73;38.64;96778.63;6294952;28;20122;-69
2022/10/07 12:33:57;;;;;;;1.65;1.15;;;;;;;13.25;39.79;96778.81;6295275;28;20044;-69
2022/10/07 12:37:39;;;;;;;2.15;1.60;;;;;;;12.92;40.46;96772.50;6295969;28;20048;-69
2022/10/07 12:40:58;;;;;;;1.88;1.60;;;;;;;12.79;41.30;96777.03;6248027;28;20068;-69
2022/10/07 12:44:29;;;;;;;3.92;2.13;;;;;;;12.86;41.41;96778.25;6295981;28;20044;-68
2022/10/07 12:47:37;;;;;;;3.00;2.13;;;;;;;12.79;41.36;96777.91;6295267;28;20130;-69
2022/10/07 12:50:39;;;;;;;2.63;1.90;;;;;;;12.63;42.20;96781.78;6295225;28;20067;-69
2022/10/07 12:53:46;;;;;;;2.33;1.83;;;;;;;12.35;42.94;96779.38;6295890;28;20052;-70
2022/10/07 12:56:51;;;;;;;3.13;1.95;;;;;;;12.13;43.76;96769.56;6295316;28;20048;-69
2022/10/07 13:00:06;;;;;;;1.90;1.35;;;;;;;12.09;43.75;96777.81;6295330;28;20048;-69
2022/10/07 13:03:35;;;;;;;2.83;1.90;;;;;;;12.00;44.77;96778.47;6295193;28;20052;-69
2022/10/07 13:06:58;;;;;;;2.65;1.20;;;;;;;11.93;44.52;96783.34;6295344;28;20453;-69
2022/10/07 13:10:10;;;;;;;3.08;1.60;;;;;;;11.89;44.22;96792.44;6295590;28;20045;-70
2022/10/07 13:13:34;;;;;;;3.97;2.50;;;;;;;11.78;44.08;96787.06;6295043;28;20052;-69
2022/10/07 13:16:38;;;;;;;4.97;2.70;;;;;;;11.58;44.61;96788.47;6295456;28;20044;-69
2022/10/07 13:19:58;;;;;;;4.30;2.80;;;;;;;11.36;44.96;96791.75;6295592;28;20044;-69
2022/10/07 13:23:35;;;;;;;7.18;3.30;;;;;;;11.27;45.14;96795.03;6294337;28;20106;-69
2022/10/07 13:26:43;;;;;;;2.75;1.88;;;;;;;11.06;45.59;96792.88;6263069;28;20053;-69
2022/10/07 13:29:48;;;;;;;5.20;2.50;;;;;;;10.91;45.85;96793.94;6295372;28;20037;-69
2022/10/07 13:32:52;;;;;;;3.10;1.92;;;;;;;10.78;46.00;96800.03;6295107;28;20052;-70
2022/10/07 13:36:12;;;;;;;6.28;2.20;;;;;;;10.64;46.39;96802.72;6294502;28;20056;-69
2022/10/07 13:39:16;;;;;;;2.70;1.55;;;;;;;10.42;46.77;96797.22;6295112;28;20049;-69
2022/10/07 13:42:18;;;;;;;4.82;2.30;;;;;;;10.29;46.86;96791.88;6294400;28;20071;-69
2022/10/07 13:45:20;;;;;;;6.10;2.75;;;;;;;10.23;47.14;96793.09;6294523;28;20052;-69
2022/10/07 13:48:24;;;;;;;4.15;2.33;;;;;;;10.25;47.23;96795.63;6294938;28;20421;-70
2022/10/07 13:51:39;;;;;;;4.18;2.70;;;;;;;10.30;47.76;96797.06;6294527;28;20049;-68
2022/10/07 13:54:52;;;;;;;4.10;2.92;;;;;;;10.32;47.76;96796.94;6293899;28;20050;-69
2022/10/07 13:57:59;;;;;;;2.53;2.10;;;;;;;10.34;47.37;96801.16;6294029;28;20049;-69
2022/10/07 14:01:07;;;;;;;3.60;1.80;;;;;;;10.36;47.69;96801.06;6293113;28;20053;-70
2022/10/07 14:04:19;;;;;;;4.30;2.67;;;;;;;10.33;47.79;96804.75;6292603;28;20040;-70
2022/10/07 14:07:21;;;;;;;2.58;1.83;;;;;;;10.26;47.52;96797.31;6294262;28;20057;-69
2022/10/07 14:10:25;;;;;;;3.60;2.28;;;;;;;10.32;48.17;96796.94;6294126;28;20510;-71
2022/10/07 14:13:30;;;;;;;3.28;2.58;;;;;;;10.38;48.05;96801.81;6294306;28;20626;-70
2022/10/07 14:16:35;;;;;;;3.03;2.50;;;;;;;10.42;47.86;96802.47;6293926;28;20044;-70
2022/10/07 14:19:38;;;;;;;4.53;2.50;;;;;;;10.42;47.97;96807.72;6294187;28;20049;-69
2022/10/07 14:22:41;;;;;;;6.35;2.50;;;;;;;10.36;48.41;96813.38;6292736;28;20134;-71
2022/10/07 14:25:54;;;;;;;2.55;2.25;;;;;;;10.34;48.38;96808.22;6294504;28;20040;-70
2022/10/07 14:29:18;;;;;;;;;;;;;;;10.30;47.77;96804.94;6293951;28;20088;-69
2022/10/07 14:35:44;;;;;;;2.92;1.70;;;;;;;10.36;48.80;96802.84;6298402;28;20052;-69
2022/10/07 14:38:50;;;;;;;3.08;1.92;;;;;;;10.33;48.80;96799.50;6298278;28;20052;-69
2022/10/07 14:41:52;;;;;;;2.13;1.75;;;;;;;10.40;49.35;96804.34;6299060;28;20447;-69
2022/10/07 14:45:01;;;;;;;5.95;1.70;;;;;;;10.42;49.07;96805.94;6298904;28;20058;-71
2022/10/07 14:48:08;;;;;;;2.15;1.63;;;;;;;10.45;49.10;96813.63;6298450;28;20044;-70
2022/10/07 14:51:11;;;;;;;2.38;1.63;;;;;;;10.49;49.25;96819.53;6298476;28;20123;-70
2022/10/07 14:54:15;;;;;;;2.75;1.58;;;;;;;10.47;49.27;96816.13;6298544;28;20079;-70
2022/10/07 14:57:17;;;;;;;2.65;1.80;;;;;;;10.40;49.70;96814.88;6298330;28;20041;-69
2022/10/07 15:00:24;;;;;;;2.53;1.60;;;;;;;10.40;49.92;96813.06;6298009;28;20076;-69